Time;durP1;ratioP1;P1;durP2;ratioP2;P2;SDS_P1;SDS_P2;PMS_P1;PMS_P2;Temp;Humidity;BMP_temperature;BMP_pressure;BME280_temperature;BME280_humidity;BME280_pressure;Samples;Min_cycle;Max_cycle;Signal;HPM_P1;HPM_P2
2022/04/04 00:02:15;;;;;;;9.93;5.43;;;;;;;-145.69;100.00;74065.72;5053189;28;20203;-73
2022/04/04 00:04:44;;;;;;;14.30;5.63;;;;;;;-145.69;100.00;74089.63;5053538;28;20235;-73
2022/04/04 00:07:11;;;;;;;16.83;6.37;;;;;;;-145.69;100.00;74063.72;5053028;28;20231;-74
2022/04/04 00:09:39;;;;;;;14.37;6.13;;;;;;;-145.69;100.00;74037.84;5053280;28;20207;-73
2022/04/04 00:12:07;;;;;;;14.43;7.17;;;;;;;-145.69;100.00;74069.69;5053186;28;20199;-73
2022/04/04 00:14:33;;;;;;;13.40;6.57;;;;;;;-145.69;100.00;74073.69;5053146;28;20214;-74
2022/04/04 00:17:02;;;;;;;16.27;6.87;;;;;;;-145.69;100.00;74049.78;5052486;28;20293;-73
2022/04/04 00:19:34;;;;;;;20.80;8.17;;;;;;;-145.69;100.00;74041.81;5064602;28;20195;-74
2022/04/04 00:22:02;;;;;;;19.47;6.73;;;;;;;-145.69;100.00;74037.84;5069677;28;20222;-74
2022/04/04 00:24:29;;;;;;;16.00;7.43;;;;;;;-145.69;100.00;74033.84;5073090;28;20213;-74
2022/04/04 00:26:55;;;;;;;17.00;7.03;;;;;;;-145.69;100.00;74057.75;5072989;28;20581;-74
2022/04/04 00:29:24;;;;;;;17.30;7.23;;;;;;;-145.69;100.00;74069.69;5072632;28;20203;-74
2022/04/04 00:31:56;;;;;;;19.87;7.93;;;;;;;-145.69;100.00;74061.72;5072850;28;20199;-73
2022/04/04 00:34:25;;;;;;;14.77;7.13;;;;;;;-145.69;100.00;74055.75;5072952;28;20199;-74
2022/04/04 00:36:53;;;;;;;18.60;7.30;;;;;;;-145.69;100.00;74041.81;5072963;28;20198;-74
2022/04/04 00:39:21;;;;;;;18.20;7.03;;;;;;;-145.69;100.00;74033.84;5072800;28;20202;-74
2022/04/04 00:41:50;;;;;;;20.70;7.23;;;;;;;-145.69;100.00;74037.84;5072735;28;20199;-74
2022/04/04 00:44:21;;;;;;;18.47;7.40;;;;;;;-145.69;100.00;74045.81;5072929;28;20209;-74
2022/04/04 00:46:50;;;;;;;18.73;7.50;;;;;;;-145.69;100.00;74031.88;5072642;28;20264;-74
2022/04/04 00:49:20;;;;;;;18.13;7.90;;;;;;;-145.69;100.00;74045.81;5072525;28;20570;-74
2022/04/04 00:51:49;;;;;;;18.53;7.33;;;;;;;-145.69;100.00;74047.78;5072810;28;20205;-75
2022/04/04 00:54:16;;;;;;;17.50;7.33;;;;;;;-145.69;100.00;74047.78;5072615;28;20203;-74
2022/04/04 00:56:45;;;;;;;15.07;6.97;;;;;;;-145.69;100.00;74037.84;5072827;28;20207;-74
2022/04/04 00:59:17;;;;;;;20.00;7.93;;;;;;;-145.69;100.00;74013.94;5072770;28;20217;-74
2022/04/04 01:01:44;;;;;;;19.20;8.47;;;;;;;-145.69;100.00;74005.97;5072709;28;20700;-74
2022/04/04 01:04:19;;;;;;;17.00;8.70;;;;;;;-145.69;100.00;74000.00;5072653;28;20298;-74
2022/04/04 01:06:46;;;;;;;19.90;8.77;;;;;;;-145.69;100.00;74021.91;5072521;28;20234;-73
2022/04/04 01:09:21;;;;;;;18.70;7.77;;;;;;;-145.69;100.00;74049.78;5072456;28;20209;-74
2022/04/04 01:12:06;;;;;;;20.37;8.30;;;;;;;-145.69;100.00;74069.69;5072462;28;20237;-74
2022/04/04 01:14:34;;;;;;;18.53;7.70;;;;;;;-145.69;100.00;74073.69;5072601;28;20206;-74
2022/04/04 01:17:01;;;;;;;14.37;7.13;;;;;;;-145.69;100.00;74073.69;5072284;28;20226;-74
2022/04/04 01:19:28;;;;;;;19.20;7.97;;;;;;;-145.69;100.00;74073.69;5072263;28;20240;-74
2022/04/04 01:21:56;;;;;;;16.30;7.17;;;;;;;-145.69;100.00;74053.78;5072661;28;20198;-74
2022/04/04 01:24:27;;;;;;;14.83;7.60;;;;;;;-145.69;100.00;74053.78;5072289;28;20207;-74
2022/04/04 01:26:56;;;;;;;22.90;8.50;;;;;;;-145.69;100.00;74037.84;5073322;28;20597;-74
2022/04/04 01:29:23;;;;;;;25.15;12.13;;;;;;;-145.69;100.00;74039.84;5074997;28;20442;-74
2022/04/04 01:31:51;;;;;;;21.63;8.83;;;;;;;-145.69;100.00;74049.78;5076125;28;20203;-74
2022/04/04 01:34:18;;;;;;;17.33;8.23;;;;;;;-145.69;100.00;74039.84;5076337;28;20198;-74
2022/04/04 01:36:44;;;;;;;20.37;8.43;;;;;;;-145.69;100.00;74017.94;5076207;28;20624;-74
2022/04/04 01:39:16;;;;;;;18.27;7.67;;;;;;;-145.69;100.00;74011.97;5075915;28;20684;-74
2022/04/04 01:41:45;;;;;;;19.20;7.60;;;;;;;-145.69;100.00;74019.91;5076088;28;20203;-74
2022/04/04 01:44:11;;;;;;;17.50;7.70;;;;;;;-145.69;100.00;74035.84;5075906;28;20221;-74
2022/04/04 01:46:41;;;;;;;15.97;7.37;;;;;;;-145.69;100.00;74029.88;5075689;28;20249;-74
2022/04/04 01:49:13;;;;;;;21.40;6.77;;;;;;;-145.69;100.00;74033.84;5076092;28;20195;-74
2022/04/04 01:51:40;;;;;;;17.83;7.63;;;;;;;-145.69;100.00;74047.78;5076031;28;20198;-74
2022/04/04 01:54:10;;;;;;;15.07;7.17;;;;;;;-145.69;100.00;74053.78;5076078;28;20649;-74
2022/04/04 01:56:37;;;;;;;26.40;7.97;;;;;;;-145.69;100.00;74043.81;5075751;28;20199;-74
2022/04/04 01:59:05;;;;;;;19.17;7.27;;;;;;;-145.69;100.00;74031.88;5075505;28;20252;-74
2022/04/04 02:01:34;;;;;;;16.93;7.67;;;;;;;-145.69;100.00;74045.81;5075742;28;20248;-74
2022/04/04 02:04:01;;;;;;;15.87;6.87;;;;;;;-145.69;100.00;74077.66;5075651;28;20199;-74
2022/04/04 02:06:28;;;;;;;16.10;7.47;;;;;;;-145.69;100.00;74073.69;5075587;28;20321;-74
2022/04/04 02:08:55;;;;;;;17.57;7.47;;;;;;;-145.69;100.00;74069.69;5075571;28;20199;-74
2022/04/04 02:11:22;;;;;;;15.13;6.80;;;;;;;-145.69;100.00;74079.66;5075416;28;20206;-74
2022/04/04 02:13:49;;;;;;;13.57;6.93;;;;;;;-145.69;100.00;74077.66;5062701;28;20751;-74
2022/04/04 02:16:17;;;;;;;15.90;7.43;;;;;;;-145.69;100.00;74067.72;5055429;28;20195;-74
2022/04/04 02:18:44;;;;;;;15.00;7.10;;;;;;;-145.69;100.00;74081.66;5060358;28;20223;-74
2022/04/04 02:21:11;;;;;;;13.10;6.10;;;;;;;-145.69;100.00;74101.56;5075319;28;20256;-74
2022/04/04 02:23:38;;;;;;;14.50;6.57;;;;;;;-145.69;100.00;74117.50;5075189;28;20203;-74
2022/04/04 02:26:05;;;;;;;15.57;6.90;;;;;;;-145.69;100.00;74123.47;5075007;28;20240;-74
2022/04/04 02:28:32;;;;;;;17.57;7.00;;;;;;;-145.69;100.00;74127.44;5075277;28;20199;-76
2022/04/04 02:30:59;;;;;;;17.23;6.77;;;;;;;-145.69;100.00;74101.56;5074973;28;20199;-75
2022/04/04 02:33:27;;;;;;;15.93;6.70;;;;;;;-145.69;100.00;74087.63;5075048;28;20535;-74
2022/04/04 02:35:54;;;;;;;15.43;6.83;;;;;;;-145.69;100.00;74083.63;5074921;28;20649;-75
2022/04/04 02:38:24;;;;;;;16.03;7.17;;;;;;;-145.69;100.00;74077.66;5073623;28;20768;-76
2022/04/04 02:40:57;;;;;;;16.70;7.43;;;;;;;-145.69;100.00;74069.69;5075056;28;20199;-76
2022/04/04 02:43:24;;;;;;;17.53;6.90;;;;;;;-145.69;100.00;74071.69;5074824;28;20198;-75
2022/04/04 02:45:51;;;;;;;16.77;6.30;;;;;;;-145.69;100.00;74069.69;5074705;28;20195;-75
2022/04/04 02:48:20;;;;;;;21.20;7.03;;;;;;;-145.69;100.00;74075.69;5074690;28;20658;-75
2022/04/04 02:50:49;;;;;;;18.60;7.37;;;;;;;-145.69;100.00;74099.56;5074739;28;20238;-75
2022/04/04 02:53:18;;;;;;;13.77;6.17;;;;;;;-145.69;100.00;74095.59;5074469;28;20206;-76
2022/04/04 02:58:28;;;;;;;13.97;6.60;;;;;;;-145.69;100.00;74073.69;5074628;28;20217;-75
2022/04/04 03:00:58;;;;;;;14.43;6.20;;;;;;;-145.69;100.00;74089.63;5074598;28;20222;-75
2022/04/04 03:03:27;;;;;;;18.87;7.17;;;;;;;-145.69;100.00;74091.59;5074218;28;20210;-75
2022/04/04 03:05:55;;;;;;;17.03;7.67;;;;;;;-145.69;100.00;74089.63;5074568;28;20222;-75
2022/04/04 03:08:21;;;;;;;18.53;7.10;;;;;;;-145.69;100.00;74075.69;5074422;28;20209;-76
2022/04/04 03:10:48;;;;;;;18.33;7.77;;;;;;;-145.69;100.00;74095.59;5074258;28;20205;-75
2022/04/04 03:13:15;;;;;;;18.57;6.93;;;;;;;-145.69;100.00;74089.63;5074126;28;20752;-75
2022/04/04 03:15:41;;;;;;;20.83;7.97;;;;;;;-145.69;100.00;74075.69;5074077;28;20203;-75
2022/04/04 03:18:12;;;;;;;17.10;7.43;;;;;;;-145.69;100.00;74073.69;5073721;28;20238;-75
2022/04/04 03:20:42;;;;;;;20.27;7.47;;;;;;;-145.69;100.00;74063.72;5074302;28;20198;-75
2022/04/04 03:23:11;;;;;;;19.33;7.23;;;;;;;-145.69;100.00;74075.69;5074174;28;20199;-75
2022/04/04 03:25:38;;;;;;;20.17;7.53;;;;;;;-145.69;100.00;74079.66;5074093;28;20206;-75
2022/04/04 03:28:05;;;;;;;13.73;7.20;;;;;;;-145.69;100.00;74089.63;5073981;28;20241;-75
2022/04/04 03:30:32;;;;;;;15.53;7.17;;;;;;;-145.69;100.00;74093.59;5073825;28;20205;-76
2022/04/04 03:33:03;;;;;;;16.93;6.50;;;;;;;-145.69;100.00;74093.59;5073984;28;20198;-76
2022/04/04 03:35:31;;;;;;;18.03;6.93;;;;;;;-145.69;100.00;74089.63;5073968;28;20206;-76
2022/04/04 03:38:04;;;;;;;17.40;6.53;;;;;;;-145.69;100.00;74095.59;5073715;28;20199;-75
2022/04/04 03:40:32;;;;;;;12.53;6.40;;;;;;;-145.69;100.00;74115.50;5073844;28;20203;-75
2022/04/04 03:43:03;;;;;;;17.97;6.90;;;;;;;-145.69;100.00;74139.41;5073575;28;20203;-75
2022/04/04 03:45:30;;;;;;;13.67;6.07;;;;;;;-145.69;100.00;74111.50;5073802;28;20198;-75
2022/04/04 03:47:58;;;;;;;16.10;6.00;;;;;;;-145.69;100.00;74095.59;5073502;28;20701;-75
2022/04/04 03:50:26;;;;;;;16.40;6.57;;;;;;;-145.69;100.00;74091.59;5073233;28;20194;-75
2022/04/04 03:53:01;;;;;;;20.23;7.23;;;;;;;-145.69;100.00;74089.63;5073494;28;20194;-74
2022/04/04 03:55:30;;;;;;;16.33;6.27;;;;;;;-145.69;100.00;74093.59;5073397;28;20206;-75
2022/04/04 03:57:59;;;;;;;18.07;6.33;;;;;;;-145.69;100.00;74077.66;5073351;28;20206;-75
2022/04/04 04:00:26;;;;;;;16.53;6.30;;;;;;;-145.69;100.00;74095.59;5073494;28;20202;-75
2022/04/04 04:02:54;;;;;;;13.97;5.90;;;;;;;-145.69;100.00;74065.72;5073360;28;20215;-75
2022/04/04 04:05:20;;;;;;;14.50;6.77;;;;;;;-145.69;100.00;74073.69;5073316;28;20285;-76
2022/04/04 04:07:48;;;;;;;17.37;6.67;;;;;;;-145.69;100.00;74073.69;5073227;28;20636;-75
2022/04/04 04:10:14;;;;;;;17.83;6.33;;;;;;;-145.69;100.00;74077.66;5073141;28;20611;-75
2022/04/04 04:12:43;;;;;;;15.93;6.50;;;;;;;-145.69;100.00;74085.63;5073276;28;20210;-75
2022/04/04 04:15:13;;;;;;;13.63;6.73;;;;;;;-145.69;100.00;74103.56;5055680;28;20558;-75
2022/04/04 04:17:40;;;;;;;15.50;5.80;;;;;;;-145.69;100.00;74109.53;5052986;28;20231;-75
2022/04/04 04:20:31;;;;;;;14.73;6.13;;;;;;;-145.69;100.00;74093.59;5069678;28;20264;-75
2022/04/04 04:23:00;;;;;;;12.60;6.03;;;;;;;-145.69;100.00;74109.53;5072931;28;20202;-76
2022/04/04 04:25:29;;;;;;;17.13;6.53;;;;;;;-145.69;100.00;74105.53;5073134;28;20208;-75
2022/04/04 04:27:57;;;;;;;15.37;5.67;;;;;;;-145.69;100.00;74103.56;5072838;28;20686;-76
2022/04/04 04:30:24;;;;;;;23.17;7.20;;;;;;;-145.69;100.00;74093.59;5073080;28;20237;-76
2022/04/04 04:32:53;;;;;;;16.40;6.60;;;;;;;-145.69;100.00;74097.56;5072927;28;20205;-75
2022/04/04 04:35:20;;;;;;;17.77;6.50;;;;;;;-145.69;100.00;74101.56;5072870;28;20290;-75
2022/04/04 04:37:51;;;;;;;16.70;6.27;;;;;;;-145.69;100.00;74115.50;5072838;28;20297;-75
2022/04/04 04:40:18;;;;;;;16.10;6.73;;;;;;;-145.69;100.00;74111.50;5072905;28;20199;-75
2022/04/04 04:42:46;;;;;;;12.60;6.43;;;;;;;-145.69;100.00;74105.53;5072935;28;20203;-75
2022/04/04 04:45:13;;;;;;;18.23;7.47;;;;;;;-145.69;100.00;74113.50;5072818;28;20290;-75
2022/04/04 04:47:41;;;;;;;14.73;6.50;;;;;;;-145.69;100.00;74095.59;5072550;28;20589;-75
2022/04/04 04:50:11;;;;;;;18.87;7.23;;;;;;;-145.69;100.00;74097.56;5072911;28;20226;-75
2022/04/04 04:52:38;;;;;;;21.00;6.27;;;;;;;-145.69;100.00;74097.56;5072809;28;20210;-75
2022/04/04 04:55:06;;;;;;;24.23;6.87;;;;;;;-145.69;100.00;74095.59;5072769;28;20260;-75
2022/04/04 04:57:33;;;;;;;14.03;6.43;;;;;;;-145.69;100.00;74117.50;5072689;28;20563;-75
2022/04/04 05:00:02;;;;;;;19.33;6.67;;;;;;;-145.69;100.00;74087.63;5072657;28;20289;-76
2022/04/04 05:02:29;;;;;;;17.60;6.07;;;;;;;-145.69;100.00;74089.63;5074939;28;20201;-75
2022/04/04 05:04:57;;;;;;;17.87;6.87;;;;;;;-145.69;100.00;74083.63;5076935;28;20608;-75
2022/04/04 05:07:26;;;;;;;17.73;7.10;;;;;;;-145.69;100.00;74071.69;5076623;28;20234;-75
2022/04/04 05:09:52;;;;;;;20.93;6.63;;;;;;;-145.69;100.00;74077.66;5076548;28;20206;-75
2022/04/04 05:12:19;;;;;;;22.10;6.57;;;;;;;-145.69;100.00;74071.69;5076689;28;20198;-76
2022/04/04 05:14:45;;;;;;;12.83;6.03;;;;;;;-145.69;100.00;74069.69;5076434;28;20206;-73
2022/04/04 05:17:12;;;;;;;15.70;6.67;;;;;;;-145.69;100.00;74057.75;5076258;28;20237;-76
2022/04/04 05:19:39;;;;;;;19.77;6.80;;;;;;;-145.69;100.00;74053.78;5076555;28;20259;-75
2022/04/04 05:22:07;;;;;;;17.40;6.47;;;;;;;-145.69;100.00;74053.78;5076583;28;20221;-75
2022/04/04 05:24:34;;;;;;;14.20;6.20;;;;;;;-145.69;100.00;74063.72;5076419;28;20199;-76
2022/04/04 05:27:01;;;;;;;17.77;6.60;;;;;;;-145.69;100.00;74067.72;5076216;28;20219;-75
2022/04/04 05:29:28;;;;;;;14.33;5.43;;;;;;;-145.69;100.00;74069.69;5076088;28;20245;-76
2022/04/04 05:31:57;;;;;;;23.80;6.33;;;;;;;-145.69;100.00;74055.75;5076374;28;20225;-75
2022/04/04 05:34:25;;;;;;;14.17;6.77;;;;;;;-145.69;100.00;74045.81;5076305;28;20209;-75
2022/04/04 05:36:51;;;;;;;15.07;7.13;;;;;;;-145.69;100.00;74045.81;5076230;28;20206;-75
2022/04/04 05:39:19;;;;;;;13.63;6.70;;;;;;;-145.69;100.00;74041.81;5076198;28;20202;-75
2022/04/04 05:41:46;;;;;;;22.37;6.93;;;;;;;-145.69;100.00;74027.88;5075945;28;20203;-75
2022/04/04 05:44:17;;;;;;;17.67;6.40;;;;;;;-145.69;100.00;74021.91;5075946;28;20202;-75
2022/04/04 05:46:43;;;;;;;18.93;6.80;;;;;;;-145.69;100.00;74021.91;5076074;28;20202;-75
2022/04/04 05:49:12;;;;;;;28.73;7.37;;;;;;;-145.69;100.00;74002.00;5076226;28;20206;-75
2022/04/04 05:51:39;;;;;;;17.57;7.40;;;;;;;-145.69;100.00;73978.09;5075870;28;20256;-75
2022/04/04 05:54:05;;;;;;;14.03;6.37;;;;;;;-145.69;100.00;73986.06;5075950;28;20209;-75
2022/04/04 05:56:37;;;;;;;25.30;7.77;;;;;;;-145.69;100.00;73978.09;5075637;28;20202;-75
2022/04/04 05:59:04;;;;;;;17.93;7.27;;;;;;;-145.69;100.00;73972.13;5075736;28;20556;-75
2022/04/04 06:01:31;;;;;;;23.23;7.60;;;;;;;-145.69;100.00;73974.13;5075815;28;20199;-75
2022/04/04 06:03:58;;;;;;;17.47;7.50;;;;;;;-145.69;100.00;73948.25;5075705;28;20202;-75
2022/04/04 06:06:24;;;;;;;18.47;7.30;;;;;;;-145.69;100.00;73936.28;5075838;28;20214;-75
2022/04/04 06:08:53;;;;;;;15.20;7.47;;;;;;;-145.69;100.00;73930.31;5075520;28;20317;-75
2022/04/04 06:11:19;;;;;;;17.07;6.53;;;;;;;-145.69;100.00;73924.34;5075654;28;20602;-75
2022/04/04 06:13:49;;;;;;;18.07;6.87;;;;;;;-145.69;100.00;73914.38;5075371;28;20206;-75
2022/04/04 06:16:15;;;;;;;20.57;8.00;;;;;;;-145.69;100.00;73888.50;5074946;28;20210;-75
2022/04/04 06:18:42;;;;;;;15.93;7.27;;;;;;;-145.69;100.00;73878.56;5062079;28;20234;-75
2022/04/04 06:21:12;;;;;;;21.37;7.70;;;;;;;-145.69;100.00;73858.63;5075305;28;20244;-75
2022/04/04 06:23:39;;;;;;;19.00;6.23;;;;;;;-145.69;100.00;73850.69;5075117;28;20206;-75
2022/04/04 06:26:07;;;;;;;17.40;7.00;;;;;;;-145.69;100.00;73846.69;5075153;28;20673;-75
2022/04/04 06:28:35;;;;;;;18.63;7.43;;;;;;;-145.69;100.00;73836.75;5075197;28;20231;-75
2022/04/04 06:31:04;;;;;;;19.37;6.93;;;;;;;-145.69;100.00;73822.81;5075356;28;20281;-75
2022/04/04 06:33:31;;;;;;;19.67;7.57;;;;;;;-145.69;100.00;73794.94;5075046;28;20650;-75
2022/04/04 06:35:57;;;;;;;22.07;7.53;;;;;;;-145.69;100.00;73771.03;5075022;28;20234;-75
2022/04/04 06:38:24;;;;;;;24.27;10.45;;;;;;;-145.69;100.00;73763.06;5074392;28;20438;-75
2022/04/04 06:40:51;;;;;;;17.03;7.93;;;;;;;-145.69;100.00;73739.19;5074932;28;20669;-75
2022/04/04 06:43:18;;;;;;;19.97;7.53;;;;;;;-145.69;100.00;73727.22;5074782;28;20661;-75
2022/04/04 06:45:47;;;;;;;16.37;6.43;;;;;;;-145.69;100.00;73695.38;5074917;28;20665;-74
2022/04/04 06:48:15;;;;;;;14.57;6.83;;;;;;;-145.69;100.00;73673.47;5074791;28;20313;-74
2022/04/04 06:50:47;;;;;;;15.83;6.97;;;;;;;-145.69;100.00;73659.53;5074691;28;20199;-74
2022/04/04 06:53:14;;;;;;;17.43;7.70;;;;;;;-145.69;100.00;73643.59;5074820;28;20206;-74
2022/04/04 06:55:42;;;;;;;17.33;7.20;;;;;;;-145.69;100.00;73621.72;5074730;28;20569;-74
2022/04/04 06:58:11;;;;;;;16.70;6.77;;;;;;;-145.69;100.00;73571.94;5074648;28;20567;-74
2022/04/04 07:00:41;;;;;;;12.67;6.43;;;;;;;-145.69;100.00;73516.19;5074636;28;20203;-74
2022/04/04 07:03:08;;;;;;;38.57;18.67;;;;;;;-145.69;100.00;73474.38;5074237;28;20203;-75
2022/04/04 07:05:40;;;;;;;34.37;15.70;;;;;;;-145.69;100.00;73436.56;5074624;28;20209;-74
2022/04/04 07:08:07;;;;;;;18.87;8.83;;;;;;;-145.69;100.00;73400.72;5074463;28;20226;-74
2022/04/04 07:10:37;;;;;;;19.00;9.07;;;;;;;-145.69;100.00;73364.88;5074312;28;20210;-75
2022/04/04 07:13:06;;;;;;;28.80;13.07;;;;;;;-145.69;100.00;73329.03;5074283;28;20203;-74
2022/04/04 07:15:33;;;;;;;21.33;11.47;;;;;;;-145.69;100.00;73303.16;5074163;28;20260;-75
2022/04/04 07:18:00;;;;;;;27.37;13.87;;;;;;;-145.69;100.00;73267.34;5074088;28;20350;-75
2022/04/04 07:20:26;;;;;;;27.20;12.17;;;;;;;-145.69;100.00;73239.47;5074263;28;20194;-75
2022/04/04 07:22:59;;;;;;;19.63;10.03;;;;;;;-145.69;100.00;73225.53;5074224;28;20278;-74
2022/04/04 07:25:25;;;;;;;23.67;9.10;;;;;;;-145.69;100.00;73197.66;5073572;28;20233;-74
2022/04/04 07:27:52;;;;;;;17.83;8.13;;;;;;;-145.69;100.00;73193.66;5074073;28;20234;-74
2022/04/04 07:30:23;;;;;;;18.20;7.23;;;;;;;-145.69;100.00;73149.88;5073932;28;20596;-74
2022/04/04 07:32:53;;;;;;;16.00;7.60;;;;;;;-145.69;100.00;73122.00;5073737;28;20207;-75
2022/04/04 07:35:21;;;;;;;20.10;9.00;;;;;;;-145.69;100.00;73114.03;5074044;28;20611;-74
2022/04/04 07:37:49;;;;;;;17.03;8.47;;;;;;;-145.69;100.00;73108.06;5073953;28;20209;-75
2022/04/04 07:40:20;;;;;;;14.47;7.80;;;;;;;-145.69;100.00;73090.16;5073895;28;20230;-74
2022/04/04 07:42:47;;;;;;;16.73;7.63;;;;;;;-145.69;100.00;73070.25;5073604;28;20205;-76
2022/04/04 07:45:15;;;;;;;17.37;8.17;;;;;;;-145.69;100.00;73044.38;5074100;28;20198;-76
2022/04/04 07:47:43;;;;;;;18.50;8.90;;;;;;;-145.69;100.00;73016.50;5073467;28;20230;-76
2022/04/04 07:50:12;;;;;;;12.27;6.70;;;;;;;-145.69;100.00;73034.41;5073906;28;20246;-76
2022/04/04 07:52:39;;;;;;;13.13;6.87;;;;;;;-145.69;100.00;73080.19;5073622;28;20198;-76
2022/04/04 07:55:08;;;;;;;11.57;6.20;;;;;;;-145.69;100.00;73092.16;5073427;28;20203;-76
2022/04/04 07:57:35;;;;;;;13.17;6.53;;;;;;;-145.69;100.00;73044.38;5073184;28;20256;-77
2022/04/04 08:00:04;;;;;;;11.87;6.10;;;;;;;-145.69;100.00;73030.44;5073438;28;20198;-75
2022/04/04 08:02:30;;;;;;;10.93;5.57;;;;;;;-145.69;98.82;73078.22;5073018;28;20608;-76
2022/04/04 08:04:57;;;;;;;11.73;4.53;;;;;;;-145.69;97.20;73094.13;5073604;28;20210;-76
2022/04/04 08:07:24;;;;;;;11.37;6.30;;;;;;;-145.69;100.00;73074.22;5073341;28;20688;-76
2022/04/04 08:09:51;;;;;;;15.17;6.40;;;;;;;-145.69;98.70;73046.34;5065745;28;20601;-76
2022/04/04 08:12:17;;;;;;;8.70;4.47;;;;;;;-145.69;87.09;73062.28;5068460;28;20294;-76
2022/04/04 08:14:47;;;;;;;9.60;5.17;;;;;;;-145.69;87.07;73048.34;5072977;28;20199;-77
2022/04/04 08:17:14;;;;;;;11.83;5.40;;;;;;;-145.69;88.08;73026.44;5072828;28;20254;-76
2022/04/04 08:19:41;;;;;;;11.73;5.33;;;;;;;-145.69;86.17;73014.50;5072721;28;20202;-78
2022/04/04 08:22:07;;;;;;;12.37;5.47;;;;;;;-145.69;84.02;73038.41;5073165;28;20703;-76
2022/04/04 08:24:34;;;;;;;9.20;4.17;;;;;;;-145.69;84.84;72992.59;5061886;28;20196;-77
2022/04/04 08:27:00;;;;;;;8.33;4.57;;;;;;;-145.69;87.83;72972.72;5053216;28;20207;-76
2022/04/04 08:29:27;;;;;;;8.27;4.50;;;;;;;-145.69;89.65;72958.78;5053386;28;20237;-75
2022/04/04 08:31:55;;;;;;;49.73;19.37;;;;;;;-145.69;82.27;72958.78;5059830;28;20199;-76
2022/04/04 08:34:21;;;;;;;8.73;4.87;;;;;;;-145.69;80.41;72976.69;5073036;28;20201;-76
2022/04/04 08:36:48;;;;;;;10.97;5.10;;;;;;;-145.69;85.51;72960.75;5072019;28;20195;-75
2022/04/04 08:39:14;;;;;;;9.43;4.30;;;;;;;-145.69;82.28;72958.78;5073127;28;20205;-76
2022/04/04 08:41:41;;;;;;;9.40;4.73;;;;;;;-145.69;83.92;72982.66;5073060;28;20207;-76
2022/04/04 08:44:08;;;;;;;9.47;4.20;;;;;;;-145.69;81.30;72960.75;5073058;28;20198;-76
2022/04/04 08:46:35;;;;;;;9.63;5.25;;;;;;;-145.69;79.78;72978.69;5072123;28;20442;-77
2022/04/04 08:49:05;;;;;;;12.93;5.27;;;;;;;-145.69;79.98;72974.69;5072847;28;20230;-76
2022/04/04 08:51:32;;;;;;;10.77;4.70;;;;;;;-145.69;76.85;72968.72;5072478;28;20226;-76
2022/04/04 08:53:59;;;;;;;8.77;4.83;;;;;;;-145.69;79.41;72958.78;5072978;28;20195;-76
2022/04/04 08:56:27;;;;;;;7.70;3.97;;;;;;;-145.69;71.69;72962.75;5072450;28;20195;-76
2022/04/04 08:58:55;;;;;;;7.80;4.43;;;;;;;-145.69;76.94;72976.69;5072271;28;20376;-75
2022/04/04 09:01:24;;;;;;;5.93;3.43;;;;;;;-145.69;71.75;72978.69;5072788;28;20198;-76
2022/04/04 09:03:52;;;;;;;9.07;4.20;;;;;;;-145.69;71.15;72970.72;5072585;28;20203;-76
2022/04/04 09:06:20;;;;;;;12.63;5.10;;;;;;;-145.69;75.03;72920.94;5071527;28;20293;-76
2022/04/04 09:08:48;;;;;;;10.30;4.77;;;;;;;-145.69;71.58;72905.03;5070559;28;20229;-76
2022/04/04 09:11:16;;;;;;;8.30;4.90;;;;;;;-145.69;69.79;72895.06;5070275;28;20662;-77
2022/04/04 09:13:43;;;;;;;7.53;4.30;;;;;;;-145.69;62.86;72962.75;5070450;28;20561;-76
2022/04/04 09:16:10;;;;;;;7.77;4.50;;;;;;;-145.69;68.32;72950.81;5070403;28;20560;-77
2022/04/04 09:18:49;;;;;;;9.10;4.60;;;;;;;-145.69;71.28;72926.91;5070237;28;20318;-76
2022/04/04 09:21:34;;;;;;;13.30;5.37;;;;;;;-145.69;66.80;72918.97;5071651;28;20202;-76
2022/04/04 09:24:07;;;;;;;8.73;4.90;;;;;;;-145.69;66.34;72911.00;5072522;28;20198;-76
2022/04/04 09:26:38;;;;;;;8.77;4.40;;;;;;;-145.69;66.11;72869.19;5072382;28;20716;-76
2022/04/04 09:29:08;;;;;;;11.60;4.60;;;;;;;-145.69;66.88;72839.34;5072273;28;20230;-76
2022/04/04 09:31:36;;;;;;;7.33;4.30;;;;;;;-145.69;64.38;72869.19;5072529;28;20207;-75
2022/04/04 09:34:04;;;;;;;7.70;4.03;;;;;;;-145.69;62.42;72859.25;5072522;28;20233;-75
2022/04/04 09:36:46;;;;;;;7.03;4.17;;;;;;;-145.69;64.44;72837.34;5072418;28;20206;-75
2022/04/04 09:39:15;;;;;;;8.57;4.23;;;;;;;-145.69;65.63;72869.19;5072372;28;20230;-75
2022/04/04 09:41:41;;;;;;;8.93;4.83;;;;;;;-145.69;68.02;72819.44;5071864;28;20199;-75
2022/04/04 09:44:11;;;;;;;8.60;4.77;;;;;;;-145.69;66.47;72835.34;5072234;28;20650;-75
2022/04/04 09:46:40;;;;;;;8.93;5.07;;;;;;;-145.69;69.09;72841.31;5072362;28;20285;-75
2022/04/04 09:49:09;;;;;;;10.17;5.03;;;;;;;-145.69;70.85;72815.44;5074825;28;20600;-75
2022/04/04 09:51:45;;;;;;;8.17;4.93;;;;;;;-145.69;69.25;72855.25;5075817;28;20538;-74
2022/04/04 09:54:15;;;;;;;7.87;4.80;;;;;;;-145.69;69.04;72843.31;5075959;28;20209;-75
2022/04/04 09:56:42;;;;;;;9.43;4.90;;;;;;;-145.69;69.73;72847.28;5076060;28;20252;-75
2022/04/04 09:59:11;;;;;;;7.90;4.87;;;;;;;-145.69;72.46;72799.53;5075898;28;20305;-74
2022/04/04 10:01:39;;;;;;;12.43;5.20;;;;;;;-145.69;69.55;72763.69;5075822;28;20202;-75
2022/04/04 10:04:08;;;;;;;9.00;5.18;;;;;;;-145.69;69.17;72787.56;5075107;28;20434;-75
2022/04/04 10:06:35;;;;;;;8.43;4.77;;;;;;;-145.69;71.12;72763.69;5075611;28;20248;-75
2022/04/04 10:09:04;;;;;;;10.13;4.97;;;;;;;-145.69;67.92;72727.88;5075697;28;20238;-74
2022/04/04 10:11:31;;;;;;;9.13;5.07;;;;;;;-145.69;68.50;72755.72;5075732;28;20205;-75
2022/04/04 10:13:58;;;;;;;8.20;5.00;;;;;;;-145.69;71.40;72793.56;5075449;28;20199;-74
2022/04/04 10:16:25;;;;;;;7.77;4.80;;;;;;;-145.69;70.92;72761.69;5059696;28;20681;-75
2022/04/04 10:18:54;;;;;;;7.73;4.93;;;;;;;-145.69;68.34;72747.78;5055624;28;20227;-76
2022/04/04 10:21:20;;;;;;;8.10;4.90;;;;;;;-145.69;69.25;72747.78;5075707;28;20231;-75
2022/04/04 10:23:50;;;;;;;6.83;4.57;;;;;;;-145.69;64.41;72733.84;5075713;28;20202;-75
2022/04/04 10:26:21;;;;;;;8.40;4.53;;;;;;;-145.69;62.89;72781.59;5075492;28;20221;-75
2022/04/04 10:28:49;;;;;;;7.63;4.30;;;;;;;-145.69;64.28;72751.75;5075328;28;20230;-75
2022/04/04 10:31:21;;;;;;;8.53;4.10;;;;;;;-145.69;62.11;72751.75;5075243;28;20248;-75
2022/04/04 10:33:49;;;;;;;7.70;4.33;;;;;;;-145.69;65.31;72737.81;5075225;28;20202;-75
2022/04/04 10:36:22;;;;;;;10.37;4.70;;;;;;;-145.69;65.38;72723.88;5075274;28;20229;-75
2022/04/04 10:38:51;;;;;;;11.67;4.93;;;;;;;-145.69;68.34;72670.13;5075091;28;20293;-75
2022/04/04 10:41:21;;;;;;;9.07;4.87;;;;;;;-145.69;67.50;72628.34;5075163;28;20202;-75
2022/04/04 10:43:49;;;;;;;9.77;4.67;;;;;;;-145.69;66.99;72596.50;5074987;28;20265;-75
2022/04/04 10:46:18;;;;;;;8.17;4.93;;;;;;;-145.69;66.93;72608.44;5074944;28;20199;-75
2022/04/04 10:48:49;;;;;;;8.43;4.50;;;;;;;-145.69;67.75;72610.44;5074741;28;20248;-75
2022/04/04 10:51:18;;;;;;;10.37;4.90;;;;;;;-145.69;65.10;72590.53;5073910;28;20199;-74
2022/04/04 10:53:48;;;;;;;10.43;5.07;;;;;;;-145.69;66.15;72574.59;5074692;28;20209;-74
2022/04/04 10:56:21;;;;;;;10.37;5.03;;;;;;;-145.69;63.45;72642.28;5073259;28;20684;-74
2022/04/04 10:58:48;;;;;;;11.83;4.43;;;;;;;-145.69;66.15;72664.16;5074133;28;20206;-74
2022/04/04 11:01:18;;;;;;;10.10;5.73;;;;;;;-145.69;66.35;72636.31;5074182;28;20203;-74
2022/04/04 11:04:00;;;;;;;8.50;4.70;;;;;;;-145.69;64.82;72586.53;5073963;28;20191;-75
2022/04/04 11:09:47;;;;;;;8.37;4.70;;;;;;;-145.69;63.78;72512.91;5074477;28;20340;-74
2022/04/04 11:12:15;;;;;;;11.03;4.73;;;;;;;-145.69;62.26;72546.72;5074513;28;20194;-75
2022/04/04 11:14:54;;;;;;;10.30;5.10;;;;;;;-145.69;63.69;72556.69;5074502;28;20206;-74
2022/04/04 11:17:30;;;;;;;9.23;5.33;;;;;;;-145.69;66.78;72560.66;5074105;28;20226;-75